Time;durP1;ratioP1;P1;durP2;ratioP2;P2;SDS_P1;SDS_P2;PMS_P1;PMS_P2;Temp;Humidity;BMP_temperature;BMP_pressure;BME280_temperature;BME280_humidity;BME280_pressure;Samples;Min_cycle;Max_cycle;Signal;HPM_P1;HPM_P2
2023/12/29 00:00:40;;;;;;;18.60;3.43;;;;;;;9.07;100.00;100625.06;5000737;28;20243;-75
2023/12/29 00:03:05;;;;;;;13.23;3.07;;;;;;;9.15;100.00;100618.75;4996076;28;20185;-74
2023/12/29 00:05:31;;;;;;;18.50;3.63;;;;;;;9.19;100.00;100607.44;4982827;28;20216;-75
2023/12/29 00:07:56;;;;;;;15.53;3.00;;;;;;;8.88;100.00;100567.72;4994261;28;20632;-75
2023/12/29 00:10:21;;;;;;;9.80;2.77;;;;;;;9.23;100.00;100640.00;4999052;28;20177;-75
2023/12/29 00:12:47;;;;;;;15.03;3.90;;;;;;;8.62;100.00;100519.34;4994149;28;20207;-75
2023/12/29 00:15:12;;;;;;;13.40;2.87;;;;;;;9.26;100.00;100602.16;4994797;28;20239;-74
2023/12/29 00:17:40;;;;;;;12.07;2.60;;;;;;;9.18;100.00;100594.25;4995820;28;20237;-74
2023/12/29 00:20:08;;;;;;;17.00;3.60;;;;;;;9.06;100.00;100575.25;4995607;28;20185;-75
2023/12/29 00:22:33;;;;;;;16.37;3.93;;;;;;;8.78;100.00;100498.50;4999535;28;20536;-75
2023/12/29 00:24:59;;;;;;;12.43;2.27;;;;;;;9.39;100.00;100618.28;4996955;28;20441;-74
2023/12/29 00:27:24;;;;;;;15.67;3.20;;;;;;;8.82;100.00;100512.31;4997726;28;20457;-74
2023/12/29 00:29:50;;;;;;;12.23;2.43;;;;;;;9.47;100.00;100603.91;4999679;28;20239;-74
2023/12/29 00:32:15;;;;;;;15.53;2.50;;;;;;;9.29;100.00;100588.38;5014033;28;20173;-74
2023/12/29 00:34:41;;;;;;;10.50;2.60;;;;;;;9.50;100.00;100625.75;4995291;28;20675;-75
2023/12/29 00:37:08;;;;;;;10.60;3.00;;;;;;;9.21;100.00;100567.09;4996182;28;20198;-75
2023/12/29 00:39:38;;;;;;;12.53;2.37;;;;;;;9.57;100.00;100624.97;4999361;28;20213;-75
2023/12/29 00:42:04;;;;;;;11.43;2.90;;;;;;;9.47;100.00;100609.28;4997846;28;20789;-75
2023/12/29 00:44:30;;;;;;;19.70;3.53;;;;;;;9.48;100.00;100626.97;4997673;28;20425;-74
2023/12/29 00:46:55;;;;;;;11.80;2.43;;;;;;;9.58;100.00;100616.75;4994367;28;20810;-74
2023/12/29 00:49:21;;;;;;;13.57;2.70;;;;;;;9.42;100.00;100601.00;4993390;28;20212;-75
2023/12/29 00:51:47;;;;;;;15.30;2.57;;;;;;;9.43;100.00;100624.06;4998585;28;20188;-74
2023/12/29 00:54:13;;;;;;;14.10;2.40;;;;;;;9.58;100.00;100638.16;4998035;28;20233;-74
2023/12/29 00:56:38;;;;;;;11.90;2.50;;;;;;;9.36;100.00;100607.97;4994451;28;20471;-74
2023/12/29 00:59:04;;;;;;;10.13;2.60;;;;;;;9.66;100.00;100651.41;4999920;28;20185;-74
2023/12/29 01:01:33;;;;;;;17.90;3.17;;;;;;;9.62;100.00;100627.88;5007603;28;20189;-74
2023/12/29 01:03:59;;;;;;;14.50;2.73;;;;;;;9.38;100.00;100591.72;4998828;28;20196;-74
2023/12/29 01:06:24;;;;;;;10.03;2.00;;;;;;;9.15;100.00;100575.94;4996826;28;20468;-75
2023/12/29 01:08:49;;;;;;;11.80;2.90;;;;;;;9.61;100.00;100629.75;4999047;28;20181;-75
2023/12/29 01:11:15;;;;;;;12.40;2.67;;;;;;;8.99;100.00;100544.94;4994108;28;20264;-75
2023/12/29 01:13:40;;;;;;;13.97;3.10;;;;;;;9.35;100.00;100611.66;4995516;28;20217;-75
2023/12/29 01:16:06;;;;;;;13.00;2.93;;;;;;;9.18;100.00;100571.00;4994167;28;20186;-75
2023/12/29 01:18:32;;;;;;;13.23;2.70;;;;;;;9.07;100.00;100543.97;4993518;28;20212;-75
2023/12/29 01:20:57;;;;;;;14.83;2.63;;;;;;;9.12;100.00;100552.25;4995561;28;20579;-75
2023/12/29 01:23:22;;;;;;;14.00;2.63;;;;;;;9.26;100.00;100572.69;4997304;28;20432;-75
2023/12/29 01:25:48;;;;;;;17.57;3.03;;;;;;;9.27;100.00;100588.56;4992911;28;20189;-75
2023/12/29 01:28:13;;;;;;;13.03;2.90;;;;;;;9.31;100.00;100570.25;4996053;28;20205;-75
2023/12/29 01:30:39;;;;;;;14.40;3.70;;;;;;;9.09;100.00;100513.31;4995184;28;20336;-75
2023/12/29 01:33:05;;;;;;;17.13;3.07;;;;;;;9.09;100.00;100513.31;4993911;28;20181;-75
2023/12/29 01:35:30;;;;;;;17.87;3.43;;;;;;;8.81;100.00;100476.72;4990738;28;20190;-75
2023/12/29 01:37:56;;;;;;;13.57;2.80;;;;;;;8.90;100.00;100471.22;4998543;28;20196;-74
2023/12/29 01:40:22;;;;;;;13.20;2.77;;;;;;;9.17;100.00;100529.22;4998621;28;20190;-74
2023/12/29 01:42:48;;;;;;;16.20;3.10;;;;;;;9.45;100.00;100568.47;4989005;28;20440;-75
2023/12/29 01:45:22;;;;;;;14.13;2.27;;;;;;;9.38;100.00;100552.38;5006700;28;20930;-75
2023/12/29 01:47:49;;;;;;;12.57;1.90;;;;;;;9.21;100.00;100532.31;5000436;28;20205;-74
2023/12/29 01:50:14;;;;;;;13.03;2.53;;;;;;;9.07;100.00;100518.03;4994348;28;20443;-75
2023/12/29 01:52:43;;;;;;;9.80;2.80;;;;;;;9.27;100.00;100539.56;4995378;28;20436;-74
2023/12/29 01:55:12;;;;;;;16.33;2.67;;;;;;;9.24;100.00;100514.00;4992438;28;20239;-74
2023/12/29 01:57:38;;;;;;;10.13;2.17;;;;;;;9.02;100.00;100505.22;4993393;28;20472;-74
2023/12/29 02:00:05;;;;;;;14.27;2.33;;;;;;;9.22;100.00;100545.50;4993542;28;20461;-75
2023/12/29 02:02:32;;;;;;;15.10;2.50;;;;;;;9.07;100.00;100510.00;4992376;28;20444;-75
2023/12/29 02:04:58;;;;;;;14.60;2.67;;;;;;;9.21;100.00;100543.84;4996176;28;20432;-75
2023/12/29 02:07:24;;;;;;;12.07;2.30;;;;;;;9.20;100.00;100534.19;4997176;28;20463;-74
2023/12/29 02:09:51;;;;;;;10.33;1.87;;;;;;;9.31;100.00;100546.16;4998401;28;20481;-75
2023/12/29 02:12:17;;;;;;;10.27;2.30;;;;;;;9.12;100.00;100512.09;4997795;28;20186;-74
2023/12/29 02:14:43;;;;;;;14.03;2.50;;;;;;;9.28;100.00;100530.50;4996379;28;20467;-75
2023/12/29 02:17:16;;;;;;;14.93;2.90;;;;;;;9.23;100.00;100528.44;4995720;28;20479;-75
2023/12/29 02:19:44;;;;;;;14.23;2.67;;;;;;;9.13;100.00;100495.00;4998548;28;20192;-74
2023/12/29 02:22:11;;;;;;;16.03;2.67;;;;;;;9.03;100.00;100469.44;4993475;28;20437;-75
2023/12/29 02:24:37;;;;;;;17.83;2.93;;;;;;;8.73;100.00;100409.19;4994342;28;20498;-75
2023/12/29 02:27:14;;;;;;;14.83;2.73;;;;;;;9.23;100.00;100474.91;4995102;28;20456;-74
2023/12/29 02:29:45;;;;;;;11.03;2.10;;;;;;;9.14;100.00;100473.44;4994426;28;20477;-75
2023/12/29 02:32:16;;;;;;;8.60;2.40;;;;;;;9.23;100.00;100474.09;4995316;28;20846;-74
2023/12/29 02:34:44;;;;;;;8.20;1.90;;;;;;;9.30;100.00;100532.97;4991153;28;20499;-75
2023/12/29 02:37:12;;;;;;;8.97;1.80;;;;;;;9.25;100.00;100563.81;4994834;28;20506;-74
2023/12/29 02:39:37;;;;;;;6.10;1.10;;;;;;;8.95;100.00;100544.50;5015081;28;20448;-75
2023/12/29 02:42:03;;;;;;;7.13;1.47;;;;;;;9.02;100.00;100596.19;4996705;28;20871;-75
2023/12/29 02:44:28;;;;;;;7.33;1.57;;;;;;;9.06;100.00;100642.13;4995691;28;20177;-75
2023/12/29 02:46:54;;;;;;;5.53;1.10;;;;;;;8.89;100.00;100671.00;4995031;28;20272;-75
2023/12/29 02:49:19;;;;;;;6.97;1.10;;;;;;;9.12;100.00;100723.47;4998843;28;20192;-75
2023/12/29 02:51:45;;;;;;;6.40;1.10;;;;;;;9.01;100.00;100741.69;5000532;28;20231;-75
2023/12/29 02:54:11;;;;;;;7.90;1.10;;;;;;;8.88;100.00;100771.00;5000188;28;20208;-75
2023/12/29 02:56:36;;;;;;;5.33;1.40;;;;;;;8.45;100.00;100721.97;4999425;28;20452;-75
2023/12/29 02:59:02;;;;;;;6.60;1.20;;;;;;;8.47;100.00;100734.09;4997169;28;20232;-74
2023/12/29 03:01:28;;;;;;;5.60;1.20;;;;;;;8.59;100.00;100755.81;4995873;28;20204;-75
2023/12/29 03:03:54;;;;;;;10.57;1.63;;;;;;;8.61;100.00;100743.09;5011055;28;20214;-75
2023/12/29 03:06:19;;;;;;;5.47;1.37;;;;;;;8.35;100.00;100700.81;4995007;28;20432;-75
2023/12/29 03:08:45;;;;;;;8.70;1.43;;;;;;;8.23;100.00;100649.72;4993495;28;20268;-75
2023/12/29 03:11:10;;;;;;;7.87;1.20;;;;;;;8.13;100.00;100676.75;4996771;28;20191;-75
2023/12/29 03:13:36;;;;;;;9.03;1.33;;;;;;;7.81;100.00;100607.69;4994411;28;20292;-75
2023/12/29 03:16:01;;;;;;;10.03;1.87;;;;;;;7.61;100.00;100573.59;4994320;28;20188;-74
2023/12/29 03:18:27;;;;;;;12.07;2.00;;;;;;;8.10;100.00;100609.47;4995941;28;20209;-75
2023/12/29 03:20:52;;;;;;;9.70;1.80;;;;;;;7.89;100.00;100584.38;4992680;28;20730;-75
2023/12/29 03:23:17;;;;;;;13.27;1.97;;;;;;;8.35;100.00;100617.97;4992503;28;20181;-74
2023/12/29 03:25:43;;;;;;;10.80;1.97;;;;;;;8.29;100.00;100587.50;4995711;28;20190;-75
2023/12/29 03:28:08;;;;;;;13.90;2.87;;;;;;;8.51;100.00;100598.25;4997134;28;20295;-75
2023/12/29 03:30:34;;;;;;;15.70;3.07;;;;;;;7.34;100.00;100414.97;5015505;28;20204;-75
2023/12/29 03:32:59;;;;;;;14.90;3.00;;;;;;;8.53;100.00;100580.16;4992580;28;20189;-75
2023/12/29 03:35:24;;;;;;;14.93;3.00;;;;;;;8.71;100.00;100601.09;5006242;28;20631;-75
2023/12/29 03:37:50;;;;;;;17.63;3.23;;;;;;;8.75;100.00;100605.84;4995454;28;20223;-75
2023/12/29 03:40:15;;;;;;;12.90;2.60;;;;;;;8.78;100.00;100610.00;4999839;28;20193;-75
2023/12/29 03:42:42;;;;;;;17.03;3.00;;;;;;;8.85;100.00;100607.38;5014665;28;20360;-75
2023/12/29 03:45:08;;;;;;;16.10;3.70;;;;;;;8.76;100.00;100591.47;4992024;28;20186;-75
2023/12/29 03:47:33;;;;;;;14.10;3.23;;;;;;;8.38;100.00;100530.25;4998742;28;20474;-75
2023/12/29 03:49:59;;;;;;;20.50;3.93;;;;;;;8.80;100.00;100578.56;5014833;28;20193;-74
2023/12/29 03:52:24;;;;;;;25.13;4.43;;;;;;;8.59;100.00;100525.91;5003910;28;20181;-74
2023/12/29 03:54:49;;;;;;;21.53;4.30;;;;;;;8.93;100.00;100583.97;4991745;28;20209;-75
2023/12/29 03:57:15;;;;;;;18.13;3.53;;;;;;;8.86;100.00;100577.78;4996718;28;20213;-75
2023/12/29 03:59:40;;;;;;;18.50;4.30;;;;;;;8.90;100.00;100570.19;5000593;28;20240;-75
2023/12/29 04:02:06;;;;;;;22.07;4.23;;;;;;;8.78;100.00;100533.25;5000440;28;20189;-75
2023/12/29 04:04:31;;;;;;;20.53;3.27;;;;;;;8.67;100.00;100514.25;5011732;28;20665;-75
2023/12/29 04:06:57;;;;;;;21.63;3.83;;;;;;;8.64;100.00;100496.75;4994922;28;20244;-75
2023/12/29 04:09:22;;;;;;;17.50;3.00;;;;;;;8.73;100.00;100508.94;5014507;28;20192;-74
2023/12/29 04:11:48;;;;;;;20.03;4.00;;;;;;;9.05;100.00;100547.66;5010708;28;20737;-75
2023/12/29 04:14:14;;;;;;;25.37;4.17;;;;;;;8.61;100.00;100475.75;4995914;28;20213;-75
2023/12/29 04:16:40;;;;;;;13.80;3.33;;;;;;;8.85;100.00;100501.22;4992852;28;20224;-75
2023/12/29 04:19:05;;;;;;;19.97;3.83;;;;;;;9.17;100.00;100539.94;4993589;28;20845;-74
2023/12/29 04:21:31;;;;;;;23.17;4.00;;;;;;;9.08;100.00;100521.53;4996320;28;20198;-75
2023/12/29 04:23:56;;;;;;;21.17;4.77;;;;;;;9.08;100.00;100524.19;4993763;28;20188;-74
2023/12/29 04:26:21;;;;;;;24.10;4.67;;;;;;;9.21;100.00;100561.75;4997458;28;20193;-75
2023/12/29 04:28:47;;;;;;;22.30;4.77;;;;;;;9.20;100.00;100568.97;5001558;28;20238;-75
2023/12/29 04:31:12;;;;;;;25.60;4.50;;;;;;;9.03;100.00;100527.47;4991368;28;20201;-75
2023/12/29 04:33:38;;;;;;;17.87;3.80;;;;;;;9.15;100.00;100579.41;4999057;28;20256;-75
2023/12/29 04:36:04;;;;;;;18.27;5.03;;;;;;;8.93;100.00;100559.91;5014973;28;20185;-75
2023/12/29 04:38:29;;;;;;;24.47;4.37;;;;;;;9.16;100.00;100596.28;4995603;28;20363;-75
2023/12/29 04:40:54;;;;;;;19.20;5.00;;;;;;;9.22;100.00;100608.88;4994974;28;20432;-75
2023/12/29 04:43:20;;;;;;;22.10;4.13;;;;;;;9.21;100.00;100620.63;5013609;28;20603;-75
2023/12/29 04:45:45;;;;;;;26.73;4.37;;;;;;;8.74;100.00;100550.72;4992474;28;20656;-75
2023/12/29 04:48:12;;;;;;;20.30;3.87;;;;;;;8.98;100.00;100627.03;5003800;28;20275;-75
2023/12/29 04:50:37;;;;;;;23.63;4.37;;;;;;;9.03;100.00;100624.63;5006066;28;20276;-75
2023/12/29 04:53:02;;;;;;;20.17;4.23;;;;;;;9.22;100.00;100651.72;4996746;28;20447;-74
2023/12/29 04:55:28;;;;;;;20.80;4.13;;;;;;;8.87;100.00;100595.47;4997155;28;20201;-75
2023/12/29 04:57:53;;;;;;;25.77;4.23;;;;;;;8.97;100.00;100611.19;4995295;28;20300;-75
2023/12/29 05:00:19;;;;;;;26.73;4.40;;;;;;;8.92;100.00;100594.91;4992111;28;20590;-75
2023/12/29 05:02:44;;;;;;;20.10;4.10;;;;;;;9.02;100.00;100630.16;4997725;28;20224;-75
2023/12/29 05:05:10;;;;;;;28.20;5.17;;;;;;;9.22;100.00;100655.22;5001603;28;20185;-75
2023/12/29 05:07:35;;;;;;;19.80;4.63;;;;;;;8.70;100.00;100581.53;4999309;28;20216;-75
2023/12/29 05:10:01;;;;;;;22.57;6.13;;;;;;;8.97;100.00;100624.56;4992560;28;20193;-75
2023/12/29 05:12:26;;;;;;;24.17;4.87;;;;;;;9.28;100.00;100673.16;4998528;28;20189;-74
2023/12/29 05:14:51;;;;;;;20.80;4.77;;;;;;;9.15;100.00;100666.91;4995463;28;20213;-75
2023/12/29 05:17:17;;;;;;;21.23;4.23;;;;;;;9.27;100.00;100686.75;5000520;28;20213;-76
2023/12/29 05:19:42;;;;;;;28.57;5.77;;;;;;;8.86;100.00;100620.56;4999460;28;20746;-75
2023/12/29 05:22:08;;;;;;;24.30;4.60;;;;;;;9.14;100.00;100671.44;4992716;28;20196;-75
2023/12/29 05:24:33;;;;;;;23.10;4.13;;;;;;;9.21;100.00;100696.38;5008070;28;20189;-75
2023/12/29 05:26:59;;;;;;;21.33;4.20;;;;;;;9.26;100.00;100726.09;4995771;28;20972;-75
2023/12/29 05:29:24;;;;;;;19.10;4.13;;;;;;;9.08;100.00;100698.94;5000956;28;20296;-75
2023/12/29 05:31:49;;;;;;;19.00;4.60;;;;;;;9.32;100.00;100747.75;4997116;28;20197;-75
2023/12/29 05:34:15;;;;;;;22.87;4.10;;;;;;;9.09;100.00;100758.66;4993767;28;20216;-75
2023/12/29 05:36:42;;;;;;;27.07;5.20;;;;;;;9.25;100.00;100783.28;4992455;28;20216;-75
2023/12/29 05:39:07;;;;;;;15.27;4.07;;;;;;;9.30;100.00;100822.06;4997516;28;20239;-74
2023/12/29 05:41:32;;;;;;;16.13;4.03;;;;;;;9.13;100.00;100792.84;4996715;28;20968;-75
2023/12/29 05:43:58;;;;;;;18.07;3.83;;;;;;;8.31;100.00;100657.63;5011634;28;20201;-75
2023/12/29 05:46:24;;;;;;;20.80;4.17;;;;;;;9.08;100.00;100784.56;4996281;28;20217;-74
2023/12/29 05:48:52;;;;;;;19.23;3.57;;;;;;;9.05;100.00;100767.06;4997815;28;20227;-74
2023/12/29 05:51:17;;;;;;;25.77;4.67;;;;;;;9.07;100.00;100747.31;4994536;28;20443;-75
2023/12/29 05:53:43;;;;;;;23.67;4.50;;;;;;;9.25;100.00;100745.81;4998982;28;20836;-75
2023/12/29 05:56:13;;;;;;;26.40;4.33;;;;;;;9.22;100.00;100729.31;4993088;28;20610;-75
2023/12/29 05:58:40;;;;;;;28.03;5.53;;;;;;;9.27;100.00;100737.59;4996205;28;20189;-75
2023/12/29 06:01:06;;;;;;;22.30;5.00;;;;;;;8.87;100.00;100645.47;4992450;28;20856;-75
2023/12/29 06:03:31;;;;;;;22.47;3.80;;;;;;;8.98;100.00;100659.13;4995317;28;20500;-75
2023/12/29 06:05:56;;;;;;;27.03;4.30;;;;;;;8.73;100.00;100604.38;4996203;28;20178;-75
2023/12/29 06:08:22;;;;;;;26.17;5.47;;;;;;;9.15;100.00;100669.56;5008359;28;20214;-75
2023/12/29 06:10:47;;;;;;;26.03;4.90;;;;;;;9.26;100.00;100693.97;4995918;28;20197;-74
2023/12/29 06:13:13;;;;;;;20.67;5.10;;;;;;;9.36;100.00;100720.38;4994836;28;20189;-75
2023/12/29 06:15:38;;;;;;;22.93;5.20;;;;;;;9.37;100.00;100689.91;4996247;28;20541;-74
2023/12/29 06:18:04;;;;;;;25.57;4.20;;;;;;;9.29;100.00;100679.38;4993009;28;20201;-74
2023/12/29 06:20:30;;;;;;;23.30;5.07;;;;;;;9.21;100.00;100683.00;4991027;28;20276;-75
2023/12/29 06:22:55;;;;;;;20.27;5.13;;;;;;;9.26;100.00;100696.63;5015025;28;20436;-75
2023/12/29 06:25:21;;;;;;;27.73;4.57;;;;;;;9.43;100.00;100721.28;4998778;28;20195;-75
2023/12/29 06:27:46;;;;;;;30.77;5.40;;;;;;;9.00;100.00;100670.47;5000420;28;20578;-75
2023/12/29 06:30:12;;;;;;;21.47;4.50;;;;;;;9.35;100.00;100729.44;5000962;28;20184;-75
2023/12/29 06:32:38;;;;;;;19.33;4.17;;;;;;;8.67;100.00;100634.56;4999837;28;20587;-75
2023/12/29 06:35:04;;;;;;;21.40;4.10;;;;;;;9.02;100.00;100679.13;5014723;28;20209;-74
2023/12/29 06:37:30;;;;;;;23.70;5.07;;;;;;;9.42;100.00;100751.72;5005073;28;20201;-75
2023/12/29 06:39:56;;;;;;;24.70;5.00;;;;;;;8.99;100.00;100692.88;4998744;28;20808;-74
2023/12/29 06:42:22;;;;;;;19.03;3.97;;;;;;;9.34;100.00;100729.63;5023233;28;20430;-74
2023/12/29 06:44:48;;;;;;;17.80;4.07;;;;;;;9.39;100.00;100740.59;5006921;28;20264;-75
2023/12/29 06:47:13;;;;;;;24.97;3.93;;;;;;;9.22;100.00;100727.47;4999968;28;20539;-75
2023/12/29 06:49:39;;;;;;;18.50;4.20;;;;;;;9.17;100.00;100699.63;5000303;28;20180;-75
2023/12/29 06:52:05;;;;;;;19.63;4.23;;;;;;;9.28;100.00;100710.63;4999210;28;20181;-75
2023/12/29 06:54:30;;;;;;;20.13;4.70;;;;;;;9.01;100.00;100668.63;5004229;28;20818;-75
2023/12/29 06:56:56;;;;;;;21.93;3.93;;;;;;;9.18;100.00;100679.91;5015718;28;20197;-74
2023/12/29 06:59:22;;;;;;;45.67;5.67;;;;;;;8.83;100.00;100618.28;5016089;28;20189;-75
2023/12/29 07:01:48;;;;;;;21.60;4.10;;;;;;;8.11;100.00;100547.03;4998238;28;20178;-75
2023/12/29 07:04:15;;;;;;;23.60;4.57;;;;;;;8.79;100.00;100612.50;4995916;28;20443;-75
2023/12/29 07:06:41;;;;;;;27.63;4.10;;;;;;;8.60;100.00;100599.75;4999062;28;20239;-75
2023/12/29 07:09:07;;;;;;;18.73;4.33;;;;;;;8.34;100.00;100538.84;4999212;28;20463;-75
2023/12/29 07:11:33;;;;;;;19.23;3.60;;;;;;;8.61;100.00;100588.03;5002141;28;20191;-75
2023/12/29 07:13:58;;;;;;;18.50;3.30;;;;;;;8.48;100.00;100599.44;5001017;28;20460;-75
2023/12/29 07:16:23;;;;;;;16.67;2.90;;;;;;;8.54;100.00;100601.34;5001765;28;20189;-75
2023/12/29 07:18:49;;;;;;;19.13;3.77;;;;;;;8.43;100.00;100575.13;4999699;28;20300;-75
2023/12/29 07:21:16;;;;;;;16.47;3.43;;;;;;;8.24;100.00;100539.13;4999045;28;21522;-75
2023/12/29 07:23:42;;;;;;;24.53;3.83;;;;;;;8.52;100.00;100594.53;5004553;28;20577;-75
2023/12/29 07:26:08;;;;;;;21.30;3.57;;;;;;;8.25;100.00;100515.94;5001835;28;20498;-75
2023/12/29 07:28:33;;;;;;;18.50;3.60;;;;;;;8.31;100.00;100524.00;5001118;28;20189;-75
2023/12/29 07:31:00;;;;;;;20.57;3.10;;;;;;;8.41;100.00;100547.75;4992056;28;20504;-75
2023/12/29 07:33:25;;;;;;;17.33;4.10;;;;;;;8.10;100.00;100494.59;4999357;28;20244;-75
2023/12/29 07:35:51;;;;;;;19.37;4.07;;;;;;;8.48;100.00;100554.00;4988552;28;20523;-75
2023/12/29 07:38:16;;;;;;;23.97;3.87;;;;;;;8.02;100.00;100476.06;4994122;28;20205;-75
2023/12/29 07:40:42;;;;;;;20.73;4.20;;;;;;;8.22;100.00;100501.13;4994266;28;20232;-75
2023/12/29 07:43:08;;;;;;;18.83;3.90;;;;;;;8.62;100.00;100552.28;4997867;28;20193;-74
2023/12/29 07:45:33;;;;;;;27.23;4.63;;;;;;;8.43;100.00;100529.69;4995598;28;20436;-75
2023/12/29 07:47:59;;;;;;;18.13;3.77;;;;;;;8.59;100.00;100564.19;4998186;28;20206;-75
2023/12/29 07:50:24;;;;;;;26.40;4.93;;;;;;;8.47;100.00;100524.78;4999172;28;20185;-75
2023/12/29 07:52:50;;;;;;;22.70;4.50;;;;;;;8.59;100.00;100558.84;4996695;28;20200;-74
2023/12/29 07:55:16;;;;;;;22.80;4.30;;;;;;;8.71;100.00;100569.03;4999068;28;20241;-75
2023/12/29 07:57:43;;;;;;;25.53;5.17;;;;;;;8.78;100.00;100584.06;4998621;28;20209;-75
2023/12/29 08:00:09;;;;;;;23.63;4.63;;;;;;;8.83;100.00;100592.34;5014775;28;20517;-75
2023/12/29 08:02:35;;;;;;;22.53;4.53;;;;;;;8.87;100.00;100595.47;4998596;28;20446;-75
2023/12/29 08:05:00;;;;;;;23.63;4.50;;;;;;;8.66;100.00;100566.91;4998088;28;20440;-75
2023/12/29 08:07:26;;;;;;;20.43;3.83;;;;;;;8.71;100.00;100574.38;4998694;28;20466;-75
2023/12/29 08:09:51;;;;;;;21.53;3.73;;;;;;;8.83;100.00;100626.31;4998660;28;20193;-75
2023/12/29 08:12:17;;;;;;;17.10;3.87;;;;;;;8.85;100.00;100644.81;4997421;28;20188;-75
2023/12/29 08:14:42;;;;;;;21.27;4.23;;;;;;;8.73;100.00;100629.28;4995211;28;20259;-75
2023/12/29 08:17:08;;;;;;;19.87;4.50;;;;;;;8.79;100.00;100630.38;4995300;28;20356;-75
2023/12/29 08:19:34;;;;;;;20.10;4.50;;;;;;;8.78;100.00;100648.25;4998118;28;20192;-75
2023/12/29 08:21:59;;;;;;;16.50;3.70;;;;;;;8.80;100.00;100648.91;4996374;28;20447;-75
2023/12/29 08:24:25;;;;;;;20.97;4.90;;;;;;;8.85;100.00;100652.84;4997265;28;20963;-75
2023/12/29 08:26:50;;;;;;;23.90;4.40;;;;;;;8.83;100.00;100650.38;5011910;28;20259;-75
2023/12/29 08:29:16;;;;;;;22.23;4.47;;;;;;;8.78;100.00;100636.75;4996973;28;20186;-75
2023/12/29 08:31:42;;;;;;;26.17;4.67;;;;;;;8.88;100.00;100647.09;5013146;28;20217;-75
2023/12/29 08:34:08;;;;;;;27.30;4.73;;;;;;;8.93;100.00;100660.75;4997170;28;20552;-75
2023/12/29 08:36:34;;;;;;;33.40;5.10;;;;;;;8.87;100.00;100643.59;5004598;28;21033;-75
2023/12/29 08:38:59;;;;;;;22.33;5.67;;;;;;;8.91;100.00;100641.38;5009738;28;20652;-74
2023/12/29 08:41:24;;;;;;;23.77;3.93;;;;;;;8.90;100.00;100653.09;5004159;28;20185;-74
2023/12/29 08:43:50;;;;;;;22.90;5.07;;;;;;;8.40;100.00;100572.03;5004837;28;20187;-75
2023/12/29 08:46:15;;;;;;;25.03;4.60;;;;;;;8.98;100.00;100647.63;5002476;28;20181;-75
2023/12/29 08:48:41;;;;;;;19.83;4.70;;;;;;;8.71;100.00;100636.69;5010057;28;20786;-75
2023/12/29 08:51:06;;;;;;;21.13;3.47;;;;;;;8.43;100.00;100571.63;4999611;28;20192;-75
2023/12/29 08:53:35;;;;;;;26.13;6.10;;;;;;;8.98;100.00;100671.69;4997625;28;20213;-75
2023/12/29 08:56:01;;;;;;;22.57;4.57;;;;;;;9.11;100.00;100700.41;5008057;28;20192;-75
2023/12/29 08:58:27;;;;;;;22.93;3.63;;;;;;;8.73;100.00;100685.44;4994429;28;20457;-74
2023/12/29 09:00:52;;;;;;;18.87;3.47;;;;;;;9.17;100.00;100763.84;4991352;28;20445;-75
2023/12/29 09:03:17;;;;;;;22.07;4.10;;;;;;;8.90;100.00;100726.13;4998629;28;20181;-75
2023/12/29 09:05:43;;;;;;;25.47;4.53;;;;;;;8.87;100.00;100742.56;4996578;28;20220;-74
2023/12/29 09:08:09;;;;;;;16.23;3.60;;;;;;;9.11;100.00;100776.16;4996071;28;20598;-74
2023/12/29 09:10:34;;;;;;;23.47;4.07;;;;;;;9.16;100.00;100771.06;5011460;28;20793;-74
2023/12/29 09:13:00;;;;;;;19.97;3.80;;;;;;;7.88;100.00;100604.09;5011845;28;20236;-74
2023/12/29 09:15:25;;;;;;;23.63;4.30;;;;;;;9.24;100.00;100788.84;5010020;28;20268;-74
2023/12/29 09:17:51;;;;;;;21.43;3.90;;;;;;;9.20;100.00;100803.59;4995561;28;20215;-74
2023/12/29 09:20:17;;;;;;;15.40;3.20;;;;;;;8.79;100.00;100743.53;4997870;28;20204;-74
2023/12/29 09:22:42;;;;;;;15.70;2.70;;;;;;;9.20;100.00;100812.50;4995155;28;20182;-74
2023/12/29 09:25:08;;;;;;;15.73;4.30;;;;;;;9.19;100.00;100820.69;4993025;28;21552;-75
2023/12/29 09:27:33;;;;;;;25.17;4.30;;;;;;;9.17;100.00;100807.53;4996584;28;20196;-74
2023/12/29 09:29:59;;;;;;;25.43;4.40;;;;;;;9.11;100.00;100789.53;4997595;28;20193;-74
2023/12/29 09:32:24;;;;;;;24.57;4.60;;;;;;;9.20;100.00;100812.50;4988577;28;20655;-74
2023/12/29 09:34:50;;;;;;;19.37;3.93;;;;;;;9.25;100.00;100799.34;4997301;28;20251;-74
2023/12/29 09:37:15;;;;;;;22.63;3.60;;;;;;;8.77;100.00;100700.09;5010666;28;20767;-74
2023/12/29 09:39:41;;;;;;;25.10;4.43;;;;;;;9.26;100.00;100781.47;4995113;28;20210;-75
2023/12/29 09:42:09;;;;;;;19.50;3.57;;;;;;;9.29;100.00;100773.06;4991251;28;20192;-75
2023/12/29 09:44:36;;;;;;;18.40;3.67;;;;;;;9.32;100.00;100769.16;4993814;28;20178;-74
2023/12/29 09:47:03;;;;;;;17.70;4.77;;;;;;;9.26;100.00;100768.09;4997182;28;20463;-74
2023/12/29 09:49:39;;;;;;;24.43;4.80;;;;;;;8.93;100.00;100687.47;5002492;28;20435;-74
2023/12/29 09:52:07;;;;;;;20.60;4.33;;;;;;;9.19;100.00;100748.44;4997378;28;20428;-75
2023/12/29 09:54:33;;;;;;;17.10;4.00;;;;;;;8.94;100.00;100707.84;5000564;28;20472;-74
2023/12/29 09:56:59;;;;;;;20.13;4.73;;;;;;;9.31;100.00;100749.56;4999370;28;20889;-75
2023/12/29 09:59:26;;;;;;;25.47;4.77;;;;;;;9.21;100.00;100733.84;4993719;28;20443;-74
2023/12/29 10:01:53;;;;;;;22.10;3.97;;;;;;;9.22;100.00;100710.59;4996804;28;20464;-74
2023/12/29 10:04:19;;;;;;;22.73;4.40;;;;;;;9.24;100.00;100713.91;4997234;28;20436;-74
2023/12/29 10:06:49;;;;;;;21.83;5.37;;;;;;;8.95;100.00;100659.53;4995810;28;20571;-75
2023/12/29 10:09:16;;;;;;;22.30;4.40;;;;;;;9.33;100.00;100687.84;4999035;28;20223;-74
2023/12/29 10:11:47;;;;;;;20.30;4.60;;;;;;;9.31;100.00;100695.22;4999235;28;20433;-74
2023/12/29 10:14:23;;;;;;;23.67;4.37;;;;;;;9.20;100.00;100676.00;4993035;28;20519;-74
2023/12/29 10:16:57;;;;;;;21.23;4.73;;;;;;;9.40;100.00;100692.22;4997147;28;20467;-74
2023/12/29 10:19:46;;;;;;;18.70;3.63;;;;;;;9.39;100.00;100709.28;4987253;28;21103;-74
2023/12/29 10:22:48;;;;;;;23.03;3.83;;;;;;;9.39;100.00;100706.63;5000238;28;20432;-74
2023/12/29 10:25:14;;;;;;;26.57;5.77;;;;;;;8.97;100.00;100662.84;5001259;28;20424;-74
2023/12/29 10:27:40;;;;;;;20.87;3.63;;;;;;;9.08;100.00;100680.22;4998022;28;20463;-74
2023/12/29 10:30:09;;;;;;;21.37;4.40;;;;;;;9.19;100.00;100702.94;4996359;28;20731;-74
2023/12/29 10:32:35;;;;;;;21.57;3.80;;;;;;;9.36;100.00;100739.13;5007684;28;20280;-74
2023/12/29 10:35:11;;;;;;;18.93;3.70;;;;;;;9.41;100.00;100730.53;5011729;28;20546;-74
2023/12/29 10:37:37;;;;;;;19.27;4.27;;;;;;;9.35;100.00;100756.22;4997725;28;20205;-75
2023/12/29 10:40:03;;;;;;;22.50;3.50;;;;;;;9.06;100.00;100674.25;5008392;28;20440;-75
2023/12/29 10:42:29;;;;;;;17.40;4.27;;;;;;;9.35;100.00;100723.28;5004386;28;20444;-74
2023/12/29 10:45:09;;;;;;;18.10;3.70;;;;;;;8.92;100.00;100678.63;4988541;28;20902;-74
2023/12/29 10:47:35;;;;;;;20.70;3.70;;;;;;;9.40;100.00;100728.84;4990146;28;20221;-76
2023/12/29 10:50:05;;;;;;;19.23;3.90;;;;;;;9.11;100.00;100676.31;5013094;28;20490;-74
2023/12/29 10:52:32;;;;;;;17.37;3.70;;;;;;;8.96;100.00;100634.41;4994093;28;20191;-75
2023/12/29 10:55:05;;;;;;;17.97;4.30;;;;;;;9.55;100.00;100731.47;4996504;28;20555;-74
2023/12/29 10:57:32;;;;;;;23.77;5.30;;;;;;;9.42;100.00;100719.59;4998172;28;20487;-74
2023/12/29 10:59:57;;;;;;;25.80;4.10;;;;;;;9.24;100.00;100658.53;4996210;28;20442;-74
2023/12/29 11:02:23;;;;;;;17.77;4.20;;;;;;;9.02;100.00;100654.22;4989139;28;20487;-75
2023/12/29 11:04:50;;;;;;;29.43;4.23;;;;;;;9.57;100.00;100783.78;4993619;28;20185;-75
2023/12/29 11:07:16;;;;;;;21.20;3.20;;;;;;;9.66;100.00;100801.38;5009056;28;20212;-75
2023/12/29 11:09:42;;;;;;;18.80;3.20;;;;;;;9.55;100.00;100809.13;4994551;28;20447;-75
2023/12/29 11:12:09;;;;;;;22.13;3.20;;;;;;;9.71;100.00;100838.28;5023355;22;20224;-67